createdAt,value
2019-05-29T00:02:18.295Z,8.52
2019-05-29T00:04:48.382Z,8.50
2019-05-29T00:07:18.540Z,8.47
2019-05-29T00:09:48.584Z,8.42
2019-05-29T00:12:21.192Z,8.37
2019-05-29T00:14:53.586Z,8.36
2019-05-29T00:17:23.582Z,8.34
2019-05-29T00:19:53.609Z,8.32
2019-05-29T00:22:23.728Z,8.30
2019-05-29T00:24:54.849Z,8.27
2019-05-29T00:27:24.936Z,8.24
2019-05-29T00:29:54.979Z,8.20
2019-05-29T00:32:25.218Z,8.17
2019-05-29T00:34:55.301Z,8.14
2019-05-29T00:37:27.191Z,8.11
2019-05-29T00:39:57.299Z,8.10
2019-05-29T00:42:27.422Z,8.09
2019-05-29T00:44:59.165Z,8.06
2019-05-29T00:47:29.175Z,8.02
2019-05-29T00:49:59.183Z,8.04
2019-05-29T00:52:32.820Z,8.04
2019-05-29T00:55:03.004Z,8.03
2019-05-29T00:57:33.034Z,8.02
2019-05-29T01:00:03.415Z,8.01
2019-05-29T01:02:34.511Z,8.00
2019-05-29T01:05:05.875Z,7.99
2019-05-29T01:07:37.948Z,7.99
2019-05-29T01:10:08.537Z,7.98
2019-05-29T01:12:38.615Z,7.98
2019-05-29T01:15:09.070Z,7.98
2019-05-29T01:17:39.209Z,7.96
2019-05-29T01:20:09.713Z,7.96
2019-05-29T01:22:39.808Z,7.92
2019-05-29T01:25:10.565Z,7.87
2019-05-29T01:27:42.129Z,7.88
2019-05-29T01:30:13.162Z,7.82
2019-05-29T01:32:43.432Z,7.74
2019-05-29T01:35:13.835Z,7.82
2019-05-29T01:37:44.302Z,7.81
2019-05-29T01:40:21.115Z,7.80
2019-05-29T01:42:49.912Z,7.84
2019-05-29T01:45:19.453Z,7.83
2019-05-29T01:47:50.609Z,7.85
2019-05-29T01:50:27.950Z,7.74
2019-05-29T01:52:58.383Z,7.70
2019-05-29T01:55:28.421Z,7.69
2019-05-29T01:57:58.831Z,7.70
2019-05-29T02:00:29.282Z,7.64
2019-05-29T02:02:59.789Z,7.66
2019-05-29T02:05:29.898Z,7.68
2019-05-29T02:08:00.018Z,7.69
2019-05-29T02:10:30.136Z,7.68
2019-05-29T02:13:00.176Z,7.66
2019-05-29T02:15:33.861Z,7.62
2019-05-29T02:18:02.406Z,7.57
2019-05-29T02:20:34.020Z,7.55
2019-05-29T02:23:04.364Z,7.48
2019-05-29T02:25:35.380Z,7.49
2019-05-29T02:28:05.607Z,7.53
2019-05-29T02:30:35.616Z,7.54
2019-05-29T02:33:06.202Z,7.56
2019-05-29T02:35:43.134Z,7.55
2019-05-29T02:38:13.131Z,7.56
2019-05-29T02:40:43.513Z,7.54
2019-05-29T02:43:13.610Z,7.47
2019-05-29T02:45:53.492Z,7.42
2019-05-29T02:48:17.894Z,7.40
2019-05-29T02:50:47.963Z,7.40
2019-05-29T02:53:17.999Z,7.34
2019-05-29T02:55:48.058Z,7.33
2019-05-29T02:58:27.744Z,7.30
2019-05-29T03:00:58.601Z,7.24
2019-05-29T03:03:31.214Z,7.22
2019-05-29T03:06:02.523Z,7.11
2019-05-29T03:08:34.369Z,7.13
2019-05-29T03:11:05.189Z,7.16
2019-05-29T03:13:35.284Z,7.16
2019-05-29T03:16:11.202Z,7.18
2019-05-29T03:18:37.292Z,7.12
2019-05-29T03:21:07.906Z,7.08
2019-05-29T03:23:38.016Z,7.14
2019-05-29T03:26:08.145Z,7.20
2019-05-29T03:28:38.516Z,7.22
2019-05-29T03:31:08.665Z,7.26
2019-05-29T03:33:47.821Z,7.28
2019-05-29T03:36:14.950Z,7.32
2019-05-29T03:38:45.033Z,7.34
2019-05-29T03:41:15.217Z,7.36
2019-05-29T03:43:45.651Z,7.36
2019-05-29T03:46:30.004Z,7.35
2019-05-29T03:48:48.017Z,7.29
2019-05-29T03:51:18.234Z,7.29
2019-05-29T03:53:48.307Z,7.24
2019-05-29T03:56:18.738Z,7.26
2019-05-29T03:58:49.954Z,7.33
2019-05-29T04:01:26.689Z,7.36
2019-05-29T04:04:09.417Z,7.33
2019-05-29T04:06:39.668Z,7.34
2019-05-29T04:09:10.542Z,7.38
2019-05-29T04:11:40.695Z,7.40
2019-05-29T04:14:10.981Z,7.45
2019-05-29T04:17:00.528Z,7.49
2019-05-29T04:19:20.132Z,7.64
2019-05-29T04:21:51.346Z,7.75
2019-05-29T04:24:23.014Z,7.88
2019-05-29T04:26:55.521Z,7.96
2019-05-29T04:29:25.727Z,8.00
2019-05-29T04:31:55.834Z,8.07
2019-05-29T04:34:26.955Z,8.13
2019-05-29T04:36:57.158Z,8.19
2019-05-29T04:39:28.389Z,8.27
2019-05-29T04:41:59.045Z,8.33
2019-05-29T04:44:30.701Z,8.40
2019-05-29T04:47:11.240Z,8.45
2019-05-29T04:49:35.724Z,8.49
2019-05-29T04:52:05.473Z,8.57
2019-05-29T04:54:37.694Z,8.66
2019-05-29T04:57:07.965Z,8.72
2019-05-29T04:59:39.267Z,8.76
2019-05-29T05:02:18.819Z,8.77
2019-05-29T05:04:48.893Z,8.81
2019-05-29T05:07:19.006Z,8.87
2019-05-29T05:10:13.475Z,8.93
2019-05-29T05:12:54.705Z,9.03
2019-05-29T05:15:33.660Z,9.09
2019-05-29T05:18:03.932Z,9.19
2019-05-29T05:20:34.482Z,9.27
2019-05-29T05:23:10.177Z,9.30
2019-05-29T05:25:41.025Z,9.39
2019-05-29T05:28:11.200Z,9.59
2019-05-29T05:30:42.446Z,9.74
2019-05-29T05:33:13.327Z,9.82
2019-05-29T05:35:43.405Z,9.87
2019-05-29T05:38:13.595Z,9.95
2019-05-29T05:40:50.742Z,10.01
2019-05-29T05:43:24.255Z,10.08
2019-05-29T05:45:52.795Z,10.02
2019-05-29T05:48:26.790Z,9.96
2019-05-29T05:50:57.828Z,10.02
2019-05-29T05:53:27.944Z,10.09
2019-05-29T05:55:58.144Z,10.15
2019-05-29T05:58:28.510Z,10.22
2019-05-29T06:00:58.909Z,10.31
2019-05-29T06:03:30.258Z,10.35
2019-05-29T06:06:02.745Z,10.36
2019-05-29T06:08:34.030Z,10.44
2019-05-29T06:11:04.715Z,10.49
2019-05-29T06:13:36.323Z,10.48
2019-05-29T06:16:08.605Z,10.55
2019-05-29T06:18:38.833Z,10.51
2019-05-29T06:21:08.976Z,10.67
2019-05-29T06:23:39.414Z,10.84
2019-05-29T06:26:10.030Z,10.90
2019-05-29T06:28:41.191Z,10.88
2019-05-29T06:31:11.407Z,10.98
2019-05-29T06:33:41.592Z,11.02
2019-05-29T06:36:14.119Z,11.03
2019-05-29T06:38:44.577Z,11.17
2019-05-29T06:41:14.812Z,11.38
2019-05-29T06:43:45.336Z,11.46
2019-05-29T06:46:15.360Z,11.40
2019-05-29T06:48:58.925Z,11.40
2019-05-29T06:51:24.524Z,11.53
2019-05-29T06:53:55.158Z,11.53
2019-05-29T06:56:25.265Z,11.74
2019-05-29T06:58:55.414Z,12.02
2019-05-29T07:01:25.566Z,12.31
2019-05-29T07:04:10.490Z,12.49
2019-05-29T07:06:27.497Z,12.58
2019-05-29T07:08:58.301Z,12.60
2019-05-29T07:11:28.592Z,12.36
2019-05-29T07:13:58.734Z,12.20
2019-05-29T07:16:43.706Z,11.99
2019-05-29T07:19:25.318Z,11.97
2019-05-29T07:21:33.589Z,11.99
2019-05-29T07:24:03.877Z,12.26
2019-05-29T07:26:33.989Z,12.32
2019-05-29T07:29:08.376Z,12.32
2019-05-29T07:31:36.910Z,12.37
2019-05-29T07:34:08.304Z,12.40
2019-05-29T07:36:39.781Z,12.41
2019-05-29T07:39:10.100Z,12.37
2019-05-29T07:41:41.567Z,12.25
2019-05-29T07:44:14.029Z,12.24
2019-05-29T07:46:45.292Z,12.29
2019-05-29T07:49:15.952Z,12.54
2019-05-29T07:51:48.639Z,13.23
2019-05-29T07:54:19.616Z,13.23
2019-05-29T07:56:49.722Z,13.31
2019-05-29T07:59:19.932Z,12.99
2019-05-29T08:01:50.252Z,12.94
2019-05-29T08:04:20.869Z,12.94
2019-05-29T08:06:54.553Z,12.91
2019-05-29T08:09:24.284Z,12.91
2019-05-29T08:11:54.505Z,12.92
2019-05-29T08:14:25.212Z,12.68
2019-05-29T08:16:55.394Z,12.61
2019-05-29T08:19:25.706Z,12.61
2019-05-29T08:21:56.004Z,12.70
2019-05-29T08:24:26.096Z,12.99
2019-05-29T08:26:57.086Z,13.02
2019-05-29T08:29:27.277Z,13.02
2019-05-29T08:31:57.907Z,13.21
2019-05-29T08:34:28.257Z,13.22
2019-05-29T08:37:06.681Z,13.11
2019-05-29T08:39:36.531Z,13.25
2019-05-29T08:42:21.938Z,13.44
2019-05-29T08:44:34.723Z,13.63
2019-05-29T08:47:10.429Z,13.74
2019-05-29T08:49:37.256Z,13.94
2019-05-29T08:52:11.626Z,13.80
2019-05-29T08:54:39.371Z,13.58
2019-05-29T08:57:10.137Z,13.56
2019-05-29T08:59:40.353Z,13.56
2019-05-29T09:02:10.476Z,13.54
2019-05-29T09:04:40.615Z,13.33
2019-05-29T09:07:10.768Z,13.33
2019-05-29T09:09:41.095Z,13.25
2019-05-29T09:12:11.523Z,13.37
2019-05-29T09:14:41.598Z,13.53
2019-05-29T09:17:12.031Z,13.73
2019-05-29T09:19:42.120Z,13.73
2019-05-29T09:22:13.321Z,14.08
2019-05-29T09:24:44.050Z,14.32
2019-05-29T09:27:15.403Z,14.47
2019-05-29T09:29:48.110Z,14.59
2019-05-29T09:32:24.796Z,14.50
2019-05-29T09:34:50.031Z,14.45
2019-05-29T09:37:20.557Z,14.38
2019-05-29T09:39:51.187Z,14.37
2019-05-29T09:42:22.440Z,14.67
2019-05-29T09:44:53.177Z,15.01
2019-05-29T09:47:24.266Z,15.75
2019-05-29T09:49:54.584Z,15.31
2019-05-29T09:52:24.933Z,14.82
2019-05-29T09:54:56.183Z,13.98
2019-05-29T09:57:28.560Z,13.98
2019-05-29T10:00:00.296Z,13.68
2019-05-29T10:02:30.558Z,14.50
2019-05-29T10:05:04.143Z,14.57
2019-05-29T10:07:34.210Z,14.58
2019-05-29T10:10:05.309Z,14.64
2019-05-29T10:12:35.394Z,14.40
2019-05-29T10:15:06.992Z,14.29
2019-05-29T10:17:37.117Z,15.44
2019-05-29T10:20:08.032Z,17.35
2019-05-29T10:22:38.211Z,18.59
2019-05-29T10:25:08.873Z,18.45
2019-05-29T10:27:39.318Z,17.40
2019-05-29T10:30:10.181Z,17.33
2019-05-29T10:32:42.432Z,16.81
2019-05-29T10:35:13.359Z,15.56
2019-05-29T10:37:44.524Z,14.89
2019-05-29T10:40:16.270Z,14.75
2019-05-29T10:42:51.215Z,14.34
2019-05-29T10:45:23.373Z,14.46
2019-05-29T10:47:54.074Z,15.00
2019-05-29T10:50:32.569Z,16.66
2019-05-29T10:53:02.673Z,17.93
2019-05-29T10:55:33.278Z,19.20
2019-05-29T10:58:03.398Z,20.57
2019-05-29T11:00:38.316Z,21.59
2019-05-29T11:03:06.615Z,21.34
2019-05-29T11:05:37.141Z,22.13
2019-05-29T11:08:07.386Z,21.25
2019-05-29T11:10:37.563Z,20.09
2019-05-29T11:13:07.940Z,19.25
2019-05-29T11:15:38.463Z,18.51
2019-05-29T11:18:08.582Z,17.72
2019-05-29T11:20:39.306Z,17.00
2019-05-29T11:23:10.267Z,16.45
2019-05-29T11:25:40.660Z,17.20
2019-05-29T11:28:10.963Z,18.22
2019-05-29T11:30:41.382Z,19.13
2019-05-29T11:33:11.583Z,19.79
2019-05-29T11:35:57.288Z,19.98
2019-05-29T11:38:13.856Z,20.76
2019-05-29T11:40:44.242Z,21.12
2019-05-29T11:43:15.396Z,21.76
2019-05-29T11:45:45.427Z,22.12
2019-05-29T11:48:15.710Z,22.37
2019-05-29T11:50:46.446Z,22.44
2019-05-29T11:53:16.475Z,20.91
2019-05-29T11:55:46.709Z,19.86
2019-05-29T11:58:30.537Z,19.14
2019-05-29T12:00:50.740Z,19.46
2019-05-29T12:03:21.186Z,19.61
2019-05-29T12:05:51.750Z,19.25
2019-05-29T12:08:22.242Z,18.83
2019-05-29T12:10:53.251Z,18.68
2019-05-29T12:13:23.591Z,18.64
2019-05-29T12:15:53.812Z,18.70
2019-05-29T12:18:24.932Z,19.32
2019-05-29T12:20:56.148Z,20.37
2019-05-29T12:23:27.227Z,21.14
2019-05-29T12:26:18.788Z,21.03
2019-05-29T12:28:31.563Z,20.82
2019-05-29T12:31:03.025Z,20.23
2019-05-29T12:33:33.736Z,20.87
2019-05-29T12:36:04.179Z,21.20
2019-05-29T12:38:34.286Z,20.64
2019-05-29T12:41:04.444Z,19.89
2019-05-29T12:43:34.759Z,19.47
2019-05-29T12:46:05.298Z,19.51
2019-05-29T12:48:35.738Z,19.56
2019-05-29T12:51:07.194Z,20.61
2019-05-29T12:53:37.718Z,21.25
2019-05-29T12:56:07.824Z,22.03
2019-05-29T12:58:37.954Z,22.71
2019-05-29T13:01:08.114Z,23.22
2019-05-29T13:03:38.331Z,23.56
2019-05-29T13:06:08.455Z,23.09
2019-05-29T13:08:38.617Z,21.72
2019-05-29T13:11:08.802Z,20.68
2019-05-29T13:13:39.346Z,19.94
2019-05-29T13:16:09.458Z,19.85
2019-05-29T13:18:45.323Z,20.28
2019-05-29T13:21:15.456Z,21.15
2019-05-29T13:23:45.995Z,21.49
2019-05-29T13:26:16.484Z,22.44
2019-05-29T13:28:47.370Z,21.37
2019-05-29T13:31:17.437Z,22.12
2019-05-29T13:33:47.574Z,23.05
2019-05-29T13:36:18.643Z,23.22
2019-05-29T13:38:48.765Z,23.41
2019-05-29T13:41:19.445Z,22.53
2019-05-29T13:43:49.607Z,21.55
2019-05-29T13:46:19.648Z,21.09
2019-05-29T13:48:50.201Z,20.54
2019-05-29T13:51:21.426Z,20.05
2019-05-29T13:54:04.806Z,20.29
2019-05-29T13:56:25.877Z,20.51
2019-05-29T13:58:55.941Z,20.59
2019-05-29T14:01:26.121Z,20.04
2019-05-29T14:03:56.368Z,19.67
2019-05-29T14:06:26.764Z,19.64
2019-05-29T14:08:56.916Z,19.59
2019-05-29T14:11:27.643Z,20.24
2019-05-29T14:13:59.112Z,21.07
2019-05-29T14:16:29.339Z,21.86
2019-05-29T14:19:00.728Z,22.53
2019-05-29T14:21:31.409Z,23.01
2019-05-29T14:24:02.843Z,23.11
2019-05-29T14:26:34.357Z,23.19
2019-05-29T14:29:05.989Z,23.15
2019-05-29T14:31:36.440Z,22.55
2019-05-29T14:34:07.505Z,21.80
2019-05-29T14:36:38.825Z,21.33
2019-05-29T14:39:10.010Z,21.16
2019-05-29T14:41:40.322Z,21.59
2019-05-29T14:44:10.545Z,22.14
2019-05-29T14:46:40.779Z,22.11
2019-05-29T14:49:13.817Z,22.39
2019-05-29T14:51:44.096Z,22.68
2019-05-29T14:54:14.343Z,22.30
2019-05-29T14:56:44.432Z,22.77
2019-05-29T14:59:14.517Z,22.65
2019-05-29T15:01:45.778Z,22.29
2019-05-29T15:04:15.879Z,21.38
2019-05-29T15:06:46.047Z,21.21
2019-05-29T15:09:17.359Z,21.01
2019-05-29T15:11:47.479Z,21.39
2019-05-29T15:14:17.536Z,22.21
2019-05-29T15:16:48.307Z,22.63
2019-05-29T15:19:18.487Z,22.77
2019-05-29T15:21:51.008Z,23.23
2019-05-29T15:24:21.307Z,23.76
2019-05-29T15:26:51.382Z,24.16
2019-05-29T15:29:21.426Z,24.10
2019-05-29T15:31:54.916Z,24.15
2019-05-29T15:34:25.430Z,23.78
2019-05-29T15:36:55.618Z,23.34
2019-05-29T15:39:25.732Z,23.47
2019-05-29T15:41:55.825Z,23.49
2019-05-29T15:44:26.102Z,23.21
2019-05-29T15:46:57.309Z,23.31
2019-05-29T15:49:27.534Z,23.54
2019-05-29T15:51:57.939Z,23.84
2019-05-29T15:54:28.052Z,24.34
2019-05-29T15:56:58.612Z,24.29
2019-05-29T15:59:29.647Z,24.20
2019-05-29T16:01:59.833Z,23.63
2019-05-29T16:04:30.012Z,23.27
2019-05-29T16:07:00.198Z,23.15
2019-05-29T16:09:30.496Z,22.78
2019-05-29T16:12:00.657Z,22.74
2019-05-29T16:14:30.903Z,22.83
2019-05-29T16:17:01.459Z,22.93
2019-05-29T16:19:31.732Z,23.05
2019-05-29T16:22:02.059Z,22.88
2019-05-29T16:24:32.955Z,23.04
2019-05-29T16:27:08.895Z,22.58
2019-05-29T16:29:35.243Z,22.57
2019-05-29T16:32:11.531Z,22.56
2019-05-29T16:34:45.403Z,22.49
2019-05-29T16:37:17.785Z,23.14
2019-05-29T16:39:47.891Z,23.10
2019-05-29T16:42:18.116Z,22.81
2019-05-29T16:44:48.721Z,22.46
2019-05-29T16:47:20.527Z,22.72
2019-05-29T16:49:50.803Z,22.56
2019-05-29T16:52:21.215Z,22.46
2019-05-29T16:54:51.361Z,22.48
2019-05-29T16:57:21.508Z,22.52
2019-05-29T16:59:51.726Z,22.02
2019-05-29T17:02:22.205Z,21.37
2019-05-29T17:04:53.187Z,21.55
2019-05-29T17:07:24.378Z,21.92
2019-05-29T17:09:54.604Z,22.06
2019-05-29T17:12:26.140Z,22.05
2019-05-29T17:14:56.773Z,21.60
2019-05-29T17:17:30.297Z,20.90
2019-05-29T17:19:58.861Z,20.08
2019-05-29T17:22:30.306Z,19.37
2019-05-29T17:25:00.882Z,18.90
2019-05-29T17:27:31.188Z,18.58
2019-05-29T17:30:02.920Z,18.30
2019-05-29T17:32:33.100Z,18.13
2019-05-29T17:35:03.236Z,17.93
2019-05-29T17:37:40.324Z,17.79
2019-05-29T17:40:10.738Z,17.69
2019-05-29T17:42:42.523Z,17.57
2019-05-29T17:45:14.311Z,17.45
2019-05-29T17:47:45.694Z,17.62
2019-05-29T17:50:19.127Z,18.06
2019-05-29T17:52:48.903Z,18.64
2019-05-29T17:55:24.948Z,19.20
2019-05-29T17:58:03.026Z,19.48
2019-05-29T18:00:34.150Z,19.91
2019-05-29T18:03:05.121Z,20.47
2019-05-29T18:05:36.863Z,20.85
2019-05-29T18:08:07.169Z,21.13
2019-05-29T18:10:37.514Z,21.60
2019-05-29T18:13:08.125Z,21.61
2019-05-29T18:15:43.320Z,21.53
2019-05-29T18:18:14.891Z,21.48
2019-05-29T18:20:45.862Z,21.27
2019-05-29T18:23:17.516Z,21.13
2019-05-29T18:25:48.067Z,20.91
2019-05-29T18:28:18.346Z,20.72
2019-05-29T18:30:48.795Z,20.48
2019-05-29T18:33:18.995Z,20.12
2019-05-29T18:36:00.656Z,19.85
2019-05-29T18:38:30.942Z,19.52
2019-05-29T18:41:05.925Z,19.41
2019-05-29T18:43:40.282Z,19.35
2019-05-29T18:46:13.829Z,19.09
2019-05-29T18:48:46.867Z,18.87
2019-05-29T18:51:18.752Z,18.68
2019-05-29T18:53:49.209Z,18.69
2019-05-29T18:56:19.446Z,18.72
2019-05-29T18:58:50.004Z,18.61
2019-05-29T19:01:21.515Z,18.83
2019-05-29T19:03:54.167Z,18.74
2019-05-29T19:06:25.615Z,18.25
2019-05-29T19:08:56.526Z,17.97
2019-05-29T19:11:28.044Z,17.50
2019-05-29T19:13:58.403Z,17.08
2019-05-29T19:16:50.124Z,16.62
2019-05-29T19:19:20.262Z,16.42
2019-05-29T19:21:50.903Z,16.21
2019-05-29T19:24:31.000Z,15.84
2019-05-29T19:27:01.428Z,15.70
2019-05-29T19:29:33.138Z,15.54
2019-05-29T19:32:03.960Z,15.30
2019-05-29T19:34:34.027Z,15.21
2019-05-29T19:37:04.531Z,15.11
2019-05-29T19:39:35.050Z,15.02
2019-05-29T19:42:05.420Z,14.99
2019-05-29T19:44:35.483Z,14.94
2019-05-29T19:47:06.645Z,14.86
2019-05-29T19:49:37.747Z,14.88
2019-05-29T19:52:09.566Z,14.81
2019-05-29T19:54:39.916Z,14.80
2019-05-29T19:57:10.019Z,14.73
2019-05-29T19:59:40.753Z,14.59
2019-05-29T20:02:10.877Z,14.59
2019-05-29T20:04:40.973Z,14.57
2019-05-29T20:07:12.622Z,14.43
2019-05-29T20:09:42.901Z,14.46
2019-05-29T20:12:13.048Z,14.39
2019-05-29T20:14:43.110Z,14.32
2019-05-29T20:17:14.343Z,14.27
2019-05-29T20:19:44.478Z,14.25
2019-05-29T20:22:15.213Z,14.20
2019-05-29T20:24:45.690Z,13.99
2019-05-29T20:27:15.936Z,14.04
2019-05-29T20:29:45.986Z,13.96
2019-05-29T20:32:17.131Z,13.95
2019-05-29T20:34:48.275Z,13.87
2019-05-29T20:37:18.749Z,13.87
2019-05-29T20:39:49.311Z,13.83
2019-05-29T20:42:19.458Z,13.83
2019-05-29T20:44:49.622Z,13.76
2019-05-29T20:47:20.643Z,13.68
2019-05-29T20:49:51.942Z,13.54
2019-05-29T20:52:24.905Z,13.54
2019-05-29T20:54:58.455Z,13.51
2019-05-29T20:57:31.764Z,13.41
2019-05-29T21:00:04.764Z,13.34
2019-05-29T21:02:38.170Z,13.34
2019-05-29T21:05:11.831Z,13.38
2019-05-29T21:07:43.483Z,13.26
2019-05-29T21:10:16.461Z,13.08
2019-05-29T21:12:47.906Z,13.18
2019-05-29T21:15:18.633Z,13.18
2019-05-29T21:17:48.669Z,13.18
2019-05-29T21:20:19.243Z,13.10
2019-05-29T21:22:49.710Z,13.10
2019-05-29T21:25:19.793Z,12.96
2019-05-29T21:27:49.878Z,12.93
2019-05-29T21:30:24.136Z,12.89
2019-05-29T21:32:54.200Z,12.90
2019-05-29T21:35:24.721Z,12.74
2019-05-29T21:37:55.330Z,12.63
2019-05-29T21:40:25.360Z,12.56
2019-05-29T21:42:55.404Z,12.57
2019-05-29T21:45:25.609Z,12.57
2019-05-29T21:47:56.019Z,12.48
2019-05-29T21:50:26.102Z,12.53
2019-05-29T21:52:57.044Z,12.53
2019-05-29T21:55:27.192Z,12.51
2019-05-29T21:57:57.296Z,12.48
2019-05-29T22:00:38.101Z,12.38
2019-05-29T22:03:09.410Z,12.41
2019-05-29T22:05:40.549Z,12.28
2019-05-29T22:08:10.630Z,12.28
2019-05-29T22:10:41.549Z,12.23
2019-05-29T22:13:11.669Z,12.19
2019-05-29T22:15:41.762Z,12.20
2019-05-29T22:18:12.122Z,12.16
2019-05-29T22:20:42.309Z,12.09
2019-05-29T22:23:12.429Z,12.00
2019-05-29T22:25:42.584Z,11.97
2019-05-29T22:28:13.215Z,11.93
2019-05-29T22:30:43.821Z,11.87
2019-05-29T22:33:14.535Z,11.85
2019-05-29T22:35:44.600Z,11.82
2019-05-29T22:38:15.175Z,11.79
2019-05-29T22:40:45.242Z,11.79
2019-05-29T22:43:21.872Z,11.76
2019-05-29T22:45:53.504Z,11.74
2019-05-29T22:48:23.671Z,11.73
2019-05-29T22:50:54.173Z,11.72
2019-05-29T22:53:24.336Z,11.70
2019-05-29T22:55:55.694Z,11.67
2019-05-29T22:58:26.072Z,11.60
2019-05-29T23:00:58.022Z,11.56
2019-05-29T23:03:28.061Z,11.54
2019-05-29T23:05:58.628Z,11.48
2019-05-29T23:08:31.218Z,11.44
2019-05-29T23:11:03.001Z,11.40
2019-05-29T23:13:33.708Z,11.34
2019-05-29T23:16:03.748Z,11.31
2019-05-29T23:18:34.280Z,11.30
2019-05-29T23:21:04.422Z,11.33
2019-05-29T23:23:34.465Z,11.29
2019-05-29T23:26:04.501Z,11.27
2019-05-29T23:28:43.223Z,11.28
2019-05-29T23:31:13.282Z,11.29
2019-05-29T23:33:43.832Z,11.32
2019-05-29T23:36:14.128Z,11.34
2019-05-29T23:38:44.338Z,11.34
2019-05-29T23:41:14.784Z,11.33
2019-05-29T23:43:44.878Z,11.30
2019-05-29T23:46:19.327Z,11.30
2019-05-29T23:48:49.524Z,11.33
2019-05-29T23:51:19.747Z,11.34
2019-05-29T23:53:50.648Z,11.33
2019-05-29T23:56:20.736Z,11.30
2019-05-29T23:58:50.722Z,11.27
